Time;durP1;ratioP1;P1;durP2;ratioP2;P2;SDS_P1;SDS_P2;PMS_P1;PMS_P2;Temp;Humidity;BMP_temperature;BMP_pressure;BME280_temperature;BME280_humidity;BME280_pressure;Samples;Min_cycle;Max_cycle;Signal;HPM_P1;HPM_P2
2021/01/24 00:02:16;;;;;;;5.60;2.63;;;;;;;6.82;100.00;4435500.50;4996326;28;20387;-86
2021/01/24 00:04:41;;;;;;;2.63;2.15;;;;;;;6.83;100.00;4433699.00;4996264;28;20030;-89
2021/01/24 00:07:08;;;;;;;3.90;3.20;;;;;;;6.82;100.00;4433574.00;4996277;28;20034;-88
2021/01/24 00:09:33;;;;;;;4.00;3.72;;;;;;;6.83;100.00;4432373.00;4996189;28;20608;-87
2021/01/24 00:11:59;;;;;;;2.30;2.17;;;;;;;6.83;100.00;4433697.00;4996113;28;20058;-87
2021/01/24 00:14:24;;;;;;;1.92;1.83;;;;;;;6.81;100.00;4435257.00;4996103;28;20057;-87
2021/01/24 00:16:50;;;;;;;3.67;3.47;;;;;;;6.80;100.00;4435974.00;4996085;28;20062;-88
2021/01/24 00:19:16;;;;;;;5.22;4.78;;;;;;;6.81;100.00;4434774.00;4996040;28;20097;-88
2021/01/24 00:21:41;;;;;;;4.20;3.58;;;;;;;6.80;100.00;4435132.00;4996657;28;20022;-89
2021/01/24 00:24:07;;;;;;;4.70;4.43;;;;;;;6.80;100.00;4435614.00;4996346;28;20453;-88
2021/01/24 00:26:32;;;;;;;3.45;2.72;;;;;;;6.79;100.00;4436815.00;4996064;28;20475;-87
2021/01/24 00:28:58;;;;;;;2.65;2.13;;;;;;;6.79;100.00;4437175.50;4995930;28;20034;-88
2021/01/24 00:31:23;;;;;;;1.95;1.90;;;;;;;6.78;100.00;4437774.00;4996337;28;20037;-88
2021/01/24 00:33:49;;;;;;;3.67;3.25;;;;;;;6.78;100.00;4437653.50;4995717;28;20528;-87
2021/01/24 00:36:16;;;;;;;4.47;3.88;;;;;;;6.78;100.00;4437652.50;4995685;28;20026;-87
2021/01/24 00:38:42;;;;;;;2.90;2.42;;;;;;;6.78;100.00;4437410.00;4995689;28;20038;-88
2021/01/24 00:41:08;;;;;;;0.80;0.80;;;;;;;6.79;100.00;4436692.50;4995801;28;20473;-87
2021/01/24 00:43:34;;;;;;;5.82;5.38;;;;;;;6.79;100.00;4436932.50;4995961;28;20022;-88
2021/01/24 00:45:59;;;;;;;4.65;4.05;;;;;;;6.79;100.00;4436451.00;4995525;28;20422;-87
2021/01/24 00:48:25;;;;;;;2.60;2.50;;;;;;;6.80;100.00;4434649.50;4995824;28;20295;-87
2021/01/24 00:50:51;;;;;;;1.80;1.70;;;;;;;6.82;100.00;4432611.50;4995488;28;20034;-87
2021/01/24 00:53:17;;;;;;;0.98;0.98;;;;;;;6.81;100.00;4434776.50;4995234;28;20037;-89
2021/01/24 00:55:42;;;;;;;2.95;2.72;;;;;;;6.80;100.00;4436937.00;4995948;28;20034;-87
2021/01/24 00:58:08;;;;;;;4.38;2.92;;;;;;;6.80;100.00;4436334.50;4995605;28;20113;-88
2021/01/24 01:00:33;;;;;;;7.15;4.00;;;;;;;6.80;100.00;4437058.00;4995426;28;20026;-88
2021/01/24 01:02:59;;;;;;;2.42;2.25;;;;;;;6.82;100.00;4435018.00;4995337;28;20026;-87
2021/01/24 01:05:24;;;;;;;1.50;1.45;;;;;;;6.82;100.00;4434778.50;4995905;28;20050;-86
2021/01/24 01:07:50;;;;;;;1.85;1.00;;;;;;;6.81;100.00;4435377.50;4994666;28;20092;-86
2021/01/24 01:10:15;;;;;;;1.00;1.00;;;;;;;6.80;100.00;4435976.50;4995199;28;20030;-86
2021/01/24 01:12:40;;;;;;;1.63;0.75;;;;;;;6.81;100.00;4435376.00;4995078;28;20037;-87
2021/01/24 01:15:06;;;;;;;1.05;1.05;;;;;;;6.80;100.00;4435735.00;4994986;28;20097;-87
2021/01/24 01:17:32;;;;;;;0.80;0.80;;;;;;;6.80;100.00;4435974.00;4995506;28;20033;-86
2021/01/24 01:19:57;;;;;;;1.77;1.67;;;;;;;6.80;100.00;4436817.00;4995186;28;20038;-88
2021/01/24 01:22:23;;;;;;;1.95;1.83;;;;;;;6.80;100.00;4436214.50;4995198;28;20398;-88
2021/01/24 01:24:48;;;;;;;13.05;2.45;;;;;;;6.79;100.00;4436934.50;4994869;28;20053;-86
2021/01/24 01:27:14;;;;;;;0.82;0.82;;;;;;;6.79;100.00;4437174.00;4994858;28;20031;-86
2021/01/24 01:29:39;;;;;;;1.25;1.25;;;;;;;6.80;100.00;4436696.00;4994993;28;20045;-84
2021/01/24 01:32:05;;;;;;;1.77;1.67;;;;;;;6.79;100.00;4436695.00;4994594;28;20405;-86
2021/01/24 01:34:30;;;;;;;3.00;1.27;;;;;;;6.79;100.00;4436693.00;4994542;28;20026;-85
2021/01/24 01:36:56;;;;;;;2.08;1.98;;;;;;;6.79;100.00;4436572.50;4994512;28;20037;-87
2021/01/24 01:39:21;;;;;;;1.55;1.20;;;;;;;6.80;100.00;4436094.50;4994463;28;20057;-85
2021/01/24 01:41:46;;;;;;;0.80;0.80;;;;;;;6.80;100.00;4435614.00;4994072;28;20050;-86
2021/01/24 01:44:12;;;;;;;0.40;0.40;;;;;;;6.81;100.00;4434535.00;4994559;28;20030;-85
2021/01/24 01:46:39;;;;;;;0.63;0.63;;;;;;;6.82;100.00;4433696.00;4994537;28;20474;-87
2021/01/24 01:49:04;;;;;;;2.50;2.30;;;;;;;6.83;100.00;4433096.50;4994810;28;20026;-86
2021/01/24 01:51:30;;;;;;;2.28;2.17;;;;;;;6.83;100.00;4432613.50;4994179;28;20096;-86
2021/01/24 01:53:55;;;;;;;3.92;1.13;;;;;;;6.82;100.00;4433214.50;5010472;28;20041;-87
2021/01/24 01:56:21;;;;;;;1.30;1.30;;;;;;;6.82;100.00;4433334.00;4994249;28;20131;-85
2021/01/24 01:58:46;;;;;;;0.88;0.88;;;;;;;6.82;100.00;4434054.50;4994415;28;20038;-86
2021/01/24 02:01:27;;;;;;;1.25;1.25;;;;;;;6.82;100.00;4434174.50;4994613;28;20034;-86
2021/01/24 02:04:07;;;;;;;3.08;2.88;;;;;;;6.81;100.00;4434413.50;4994139;28;20030;-88
2021/01/24 02:06:40;;;;;;;1.25;0.68;;;;;;;6.81;100.00;4434653.00;4994503;28;20406;-87
2021/01/24 02:09:50;;;;;;;0.85;0.75;;;;;;;6.80;100.00;4434290.50;4994314;28;20502;-87
2021/01/24 02:12:35;;;;;;;1.20;1.17;;;;;;;6.79;100.00;4434042.00;4993818;28;20042;-86
2021/01/24 02:15:11;;;;;;;4.47;1.83;;;;;;;6.79;100.00;4434887.00;4994276;28;20045;-85
2021/01/24 02:17:42;;;;;;;0.95;0.95;;;;;;;6.78;100.00;4435005.00;5010721;28;20066;-85
2021/01/24 02:20:37;;;;;;;0.90;0.77;;;;;;;6.78;100.00;4435965.00;4993195;28;20065;-86
2021/01/24 02:23:06;;;;;;;0.40;0.40;;;;;;;6.78;100.00;4436448.00;4985584;28;20042;-86
2021/01/24 02:25:50;;;;;;;0.30;0.30;;;;;;;6.78;100.00;4436208.00;5010237;28;20493;-86
2021/01/24 02:28:39;;;;;;;1.23;1.10;;;;;;;6.78;100.00;4436568.00;5009925;28;20034;-85
2021/01/24 02:31:05;;;;;;;2.92;1.33;;;;;;;6.77;100.00;4437649.00;5009975;28;20034;-86
2021/01/24 02:33:33;;;;;;;0.20;0.20;;;;;;;6.79;100.00;4436089.50;4994069;28;20034;-88
2021/01/24 02:36:00;;;;;;;0.70;0.70;;;;;;;6.80;100.00;4435493.00;5009807;28;20036;-90
2021/01/24 02:38:27;;;;;;;1.20;0.73;;;;;;;6.79;100.00;4435609.00;4993508;28;20475;-89
2021/01/24 02:40:54;;;;;;;0.93;0.93;;;;;;;6.79;100.00;4435730.00;4993428;28;20121;-89
2021/01/24 02:43:22;;;;;;;0.77;0.77;;;;;;;6.78;100.00;4436450.00;4993596;28;20035;-89
2021/01/24 02:45:49;;;;;;;2.00;1.88;;;;;;;6.79;100.00;4436571.00;4993938;28;20023;-89
2021/01/24 02:48:17;;;;;;;0.30;0.30;;;;;;;6.79;100.00;4435729.00;5010163;28;20093;-88
2021/01/24 02:50:45;;;;;;;1.58;1.52;;;;;;;6.78;100.00;4436811.00;4993343;28;20042;-88
2021/01/24 02:53:12;;;;;;;1.13;1.13;;;;;;;6.78;100.00;4437652.50;4993478;28;20121;-88
2021/01/24 02:55:38;;;;;;;4.25;3.30;;;;;;;6.78;100.00;4437172.00;4993158;28;20406;-89
2021/01/24 02:58:04;;;;;;;2.63;1.83;;;;;;;6.78;100.00;4436809.00;4993208;28;20042;-91
2021/01/24 03:00:30;;;;;;;0.35;0.35;;;;;;;6.79;100.00;4436694.00;4993018;28;20490;-89
2021/01/24 03:02:56;;;;;;;0.38;0.38;;;;;;;6.78;100.00;4436570.50;4993106;28;20068;-88
2021/01/24 03:05:22;;;;;;;0.32;0.32;;;;;;;6.80;100.00;4435732.50;4993020;28;20030;-88
2021/01/24 03:07:49;;;;;;;8.88;1.17;;;;;;;6.81;100.00;4434652.50;4992971;28;20046;-88
2021/01/24 03:10:15;;;;;;;0.50;0.50;;;;;;;6.82;100.00;4433453.00;4993033;28;20486;-87
2021/01/24 03:13:04;;;;;;;1.05;1.05;;;;;;;6.83;100.00;4432013.00;4992870;28;20030;-87
2021/01/24 03:15:30;;;;;;;2.28;1.85;;;;;;;6.85;100.00;4429975.50;5007965;28;20034;-87
2021/01/24 03:17:58;;;;;;;1.13;1.10;;;;;;;6.86;100.00;4428654.50;4993108;28;20421;-86
2021/01/24 03:20:26;;;;;;;1.75;1.65;;;;;;;6.87;100.00;4427695.50;4993979;28;20037;-87
2021/01/24 03:22:53;;;;;;;0.65;0.65;;;;;;;6.88;100.00;4427337.00;4992851;28;20042;-86
2021/01/24 03:25:20;;;;;;;1.35;1.35;;;;;;;6.89;100.00;4427100.00;4992542;28;20442;-86
2021/01/24 03:27:47;;;;;;;0.40;0.40;;;;;;;6.89;100.00;4426980.50;4992733;28;20045;-86
2021/01/24 03:30:13;;;;;;;1.30;1.17;;;;;;;6.88;100.00;4427217.00;4992528;28;20026;-89
2021/01/24 03:32:38;;;;;;;3.55;1.27;;;;;;;6.88;100.00;4428058.00;4994051;28;20045;-86
2021/01/24 03:35:05;;;;;;;2.50;2.35;;;;;;;6.88;100.00;4427939.00;4992621;28;20022;-86
2021/01/24 03:37:31;;;;;;;0.50;0.50;;;;;;;6.87;100.00;4428297.00;4992395;28;20026;-87
2021/01/24 03:39:56;;;;;;;1.30;1.20;;;;;;;6.88;100.00;4428300.50;4992849;28;20413;-86
2021/01/24 03:42:21;;;;;;;0.60;0.60;;;;;;;6.89;100.00;4427821.00;4992315;28;20054;-87
2021/01/24 03:44:47;;;;;;;0.80;0.80;;;;;;;6.89;100.00;4426981.00;4992617;28;20023;-87
2021/01/24 03:47:12;;;;;;;3.85;1.52;;;;;;;6.91;100.00;4425903.00;4992545;28;20026;-86
2021/01/24 03:49:38;;;;;;;0.32;0.32;;;;;;;6.91;100.00;4425182.00;4992447;28;20076;-87
2021/01/24 03:52:04;;;;;;;0.55;0.55;;;;;;;6.90;100.00;4425900.00;5009326;28;20038;-87
2021/01/24 03:54:30;;;;;;;0.50;0.50;;;;;;;6.89;100.00;4426138.00;4992699;28;20033;-87
2021/01/24 03:56:55;;;;;;;0.77;0.77;;;;;;;6.89;100.00;4425655.50;4992455;28;20052;-86
2021/01/24 03:59:21;;;;;;;1.25;0.50;;;;;;;6.89;100.00;4425897.50;4992741;28;20034;-87
2021/01/24 04:01:46;;;;;;;0.60;0.60;;;;;;;6.88;100.00;4426374.50;4992272;28;20038;-86
2021/01/24 04:04:11;;;;;;;0.43;0.43;;;;;;;6.87;100.00;4427573.00;4992437;28;20027;-87
2021/01/24 04:06:37;;;;;;;0.90;0.90;;;;;;;6.87;100.00;4427692.50;4992253;28;20027;-86
2021/01/24 04:09:03;;;;;;;1.67;1.30;;;;;;;6.86;100.00;4428534.50;4992307;28;20026;-86
2021/01/24 04:11:30;;;;;;;0.55;0.55;;;;;;;6.85;100.00;4429493.50;4992275;28;20033;-86
2021/01/24 04:13:55;;;;;;;0.77;0.77;;;;;;;6.84;100.00;4431536.00;4992202;28;20030;-86
2021/01/24 04:16:21;;;;;;;0.93;0.93;;;;;;;6.83;100.00;4432615.50;4992439;28;20030;-86
2021/01/24 04:18:46;;;;;;;1.58;1.48;;;;;;;6.82;100.00;4433214.50;4993353;28;20112;-87
2021/01/24 04:21:12;;;;;;;0.30;0.30;;;;;;;6.82;100.00;4433214.00;4992200;28;20038;-86
2021/01/24 04:23:37;;;;;;;1.95;1.85;;;;;;;6.81;100.00;4434292.00;4992128;28;20058;-85
2021/01/24 04:26:03;;;;;;;0.55;0.55;;;;;;;6.80;100.00;4435493.50;4992411;28;20121;-86
2021/01/24 04:28:28;;;;;;;1.77;1.08;;;;;;;6.80;100.00;4435613.00;4991996;28;20037;-86
2021/01/24 04:30:54;;;;;;;3.80;2.58;;;;;;;6.80;100.00;4435253.00;4992080;28;20417;-86
2021/01/24 04:33:19;;;;;;;3.40;1.00;;;;;;;6.80;100.00;4436456.50;4992062;28;20026;-87
2021/01/24 04:35:45;;;;;;;0.45;0.45;;;;;;;6.79;100.00;4437056.50;4992040;28;20084;-86
2021/01/24 04:38:10;;;;;;;1.38;1.13;;;;;;;6.81;100.00;4436459.00;4992071;28;20034;-87
2021/01/24 04:40:35;;;;;;;0.38;0.38;;;;;;;6.81;100.00;4435979.50;4992111;28;20486;-86
2021/01/24 04:43:02;;;;;;;1.42;1.33;;;;;;;6.81;100.00;4436098.00;4994567;28;20047;-89
2021/01/24 04:45:27;;;;;;;0.30;0.30;;;;;;;6.80;100.00;4435493.00;5011976;28;20027;-88
2021/01/24 04:47:53;;;;;;;0.20;0.20;;;;;;;6.82;100.00;4435381.00;4995819;28;20097;-88
2021/01/24 04:50:19;;;;;;;0.60;0.60;;;;;;;6.82;100.00;4436343.00;4995787;28;20037;-88
2021/01/24 04:52:45;;;;;;;0.30;0.30;;;;;;;6.82;100.00;4435983.50;4995611;28;20034;-91
2021/01/24 04:55:11;;;;;;;0.82;0.82;;;;;;;6.83;100.00;4435626.50;4995457;28;20032;-89
2021/01/24 04:57:37;;;;;;;0.43;0.43;;;;;;;6.83;100.00;4436107.00;4995884;28;20030;-89
2021/01/24 05:00:06;;;;;;;0.77;0.77;;;;;;;6.82;100.00;4437187.00;4995715;28;20464;-90
2021/01/24 05:02:32;;;;;;;0.68;0.68;;;;;;;6.83;100.00;4436227.00;4996013;28;20072;-88
2021/01/24 05:04:58;;;;;;;4.85;1.17;;;;;;;6.83;100.00;4435505.00;4995004;28;20026;-88
2021/01/24 05:07:24;;;;;;;0.40;0.40;;;;;;;6.83;100.00;4435987.00;4995299;28;20057;-87
2021/01/24 05:09:50;;;;;;;0.47;0.47;;;;;;;6.83;100.00;4435867.00;4995234;28;20026;-87
2021/01/24 05:12:16;;;;;;;0.40;0.40;;;;;;;6.83;100.00;4435144.50;4995399;28;20038;-87
2021/01/24 05:14:41;;;;;;;0.60;0.60;;;;;;;6.82;100.00;4435380.50;4995072;28;20026;-86
2021/01/24 05:17:07;;;;;;;0.30;0.30;;;;;;;6.81;100.00;4436341.00;5011765;28;20474;-86
2021/01/24 05:19:35;;;;;;;0.35;0.35;;;;;;;6.80;100.00;4437901.50;4995058;28;20026;-86
2021/01/24 05:22:05;;;;;;;1.85;1.75;;;;;;;6.79;100.00;4438982.00;4994837;28;20497;-88
2021/01/24 05:24:31;;;;;;;2.03;0.75;;;;;;;6.79;100.00;4439825.00;4994515;28;20030;-87
2021/01/24 05:27:06;;;;;;;0.40;0.40;;;;;;;6.79;100.00;4440546.00;4995348;28;20038;-88
2021/01/24 05:29:31;;;;;;;0.65;0.65;;;;;;;6.78;100.00;4441507.50;4994915;28;20065;-87
2021/01/24 05:32:00;;;;;;;0.52;0.52;;;;;;;6.79;100.00;4440907.00;4994687;28;20030;-86
2021/01/24 05:34:28;;;;;;;1.02;0.77;;;;;;;6.79;100.00;4439706.00;4994714;28;20457;-87
2021/01/24 05:36:55;;;;;;;1.85;1.15;;;;;;;6.80;100.00;4439226.50;4994848;28;20026;-86
2021/01/24 05:39:21;;;;;;;0.77;0.77;;;;;;;6.79;100.00;4440305.00;4994655;28;20030;-87
2021/01/24 05:41:48;;;;;;;0.20;0.20;;;;;;;6.77;100.00;4441986.00;4994449;28;20058;-86
2021/01/24 05:44:16;;;;;;;0.47;0.47;;;;;;;6.76;100.00;4443186.50;4994911;28;20088;-90
2021/01/24 05:46:41;;;;;;;0.30;0.30;;;;;;;6.77;100.00;4441743.50;4994851;28;20049;-88
2021/01/24 05:49:08;;;;;;;0.88;0.88;;;;;;;6.77;100.00;4441745.00;4994384;28;20482;-89
2021/01/24 05:51:34;;;;;;;5.25;3.67;;;;;;;6.77;100.00;4442346.50;4994406;28;20030;-90
2021/01/24 05:54:00;;;;;;;0.50;0.50;;;;;;;6.78;100.00;4442348.50;4994339;28;20034;-87
2021/01/24 05:56:26;;;;;;;0.77;0.77;;;;;;;6.77;100.00;4442948.50;4995377;28;20022;-87
2021/01/24 05:58:58;;;;;;;2.47;1.60;;;;;;;6.76;100.00;4444270.50;4995318;28;20030;-86
2021/01/24 06:01:24;;;;;;;2.05;1.85;;;;;;;6.76;100.00;4444027.50;5010517;28;20092;-87
2021/01/24 06:03:53;;;;;;;1.10;1.10;;;;;;;6.76;100.00;4444029.00;5010480;28;20084;-90
2021/01/24 06:06:19;;;;;;;1.98;1.80;;;;;;;6.75;100.00;4444870.00;4994745;28;20023;-90
2021/01/24 06:08:44;;;;;;;9.95;1.15;;;;;;;6.75;100.00;4445231.00;4994204;28;20043;-89
2021/01/24 06:11:10;;;;;;;1.23;1.20;;;;;;;6.75;100.00;4444990.50;4994214;28;20053;-89
2021/01/24 06:13:37;;;;;;;0.40;0.40;;;;;;;6.77;100.00;4443791.00;4994171;28;20042;-90
2021/01/24 06:16:17;;;;;;;1.43;0.73;;;;;;;6.78;100.00;4442710.50;4993902;28;20030;-90
2021/01/24 06:18:55;;;;;;;2.28;1.33;;;;;;;6.78;100.00;4442110.50;4993913;28;20062;-85
2021/01/24 06:21:27;;;;;;;0.20;0.20;;;;;;;6.77;100.00;4443311.00;5010827;28;20093;-86
2021/01/24 06:24:14;;;;;;;1.05;1.05;;;;;;;6.77;100.00;4443793.00;4994341;28;20478;-85
2021/01/24 06:26:42;;;;;;;2.03;1.92;;;;;;;6.77;100.00;4444034.00;4994229;28;20085;-86
2021/01/24 06:29:11;;;;;;;1.20;1.20;;;;;;;6.78;100.00;4442592.50;4993570;28;20085;-86
2021/01/24 06:31:44;;;;;;;;;;;;;;;6.79;100.00;4442835.50;4993625;28;20061;-86
2021/01/24 06:34:10;;;;;;;0.50;0.50;;;;;;;6.80;100.00;4442718.00;4993891;28;19910;-87
2021/01/24 06:37:03;;;;;;;1.42;1.05;;;;;;;6.79;100.00;4443681.50;4992717;28;20045;-86
2021/01/24 06:39:59;;;;;;;12.00;3.13;;;;;;;6.77;100.00;4444997.00;4986743;28;20040;-87
2021/01/24 06:42:46;;;;;;;0.50;0.50;;;;;;;6.78;100.00;4446083.50;4992644;28;20434;-88
2021/01/24 06:45:36;;;;;;;0.57;0.57;;;;;;;6.78;100.00;4446205.00;4993727;28;20484;-85
2021/01/24 06:48:02;;;;;;;0.60;0.60;;;;;;;6.79;100.00;4446089.50;4985925;28;20061;-89
2021/01/24 06:50:48;;;;;;;0.73;0.73;;;;;;;6.79;100.00;4445488.00;4992804;28;20498;-91
2021/01/24 06:53:14;;;;;;;0.65;0.65;;;;;;;6.81;100.00;4444890.50;4993159;28;20034;-90
2021/01/24 06:55:52;;;;;;;0.40;0.40;;;;;;;6.83;100.00;4442490.50;5010171;28;20118;-88
2021/01/24 06:58:52;;;;;;;2.20;1.17;;;;;;;6.85;100.00;4440814.00;4993125;28;20034;-92
2021/01/24 07:01:26;;;;;;;0.30;0.30;;;;;;;6.87;100.00;4439615.00;4991939;28;20030;-92
2021/01/24 07:04:25;;;;;;;1.02;1.00;;;;;;;6.87;100.00;4439133.50;4992925;28;20129;-93
2021/01/24 07:06:55;;;;;;;1.65;0.80;;;;;;;6.88;100.00;4437813.50;4993245;28;20030;-91
2021/01/24 07:09:23;;;;;;;0.20;0.20;;;;;;;6.90;100.00;4436133.00;4992879;28;20030;-92
2021/01/24 07:11:53;;;;;;;1.20;1.20;;;;;;;6.90;100.00;4435049.50;4992588;28;20034;-91
2021/01/24 07:14:37;;;;;;;1.42;1.33;;;;;;;6.91;100.00;4434332.50;4992712;28;20033;-93
2021/01/24 07:17:07;;;;;;;0.20;0.20;;;;;;;6.92;100.00;4433733.00;4993293;28;20490;-90
2021/01/24 07:19:50;;;;;;;0.52;0.52;;;;;;;6.94;100.00;4432417.00;4992716;28;20034;-90
2021/01/24 07:22:17;;;;;;;1.20;1.13;;;;;;;6.95;100.00;4431457.50;4992852;28;20026;-92
2021/01/24 07:24:45;;;;;;;0.30;0.30;;;;;;;6.97;100.00;4430018.00;4992536;28;20244;-90
2021/01/24 07:27:12;;;;;;;0.20;0.20;;;;;;;6.98;100.00;4428699.00;4992688;28;20065;-91
2021/01/24 07:29:38;;;;;;;1.75;1.38;;;;;;;6.99;100.00;4427619.00;4992627;28;20034;-89
2021/01/24 07:32:16;;;;;;;1.25;1.25;;;;;;;7.01;100.00;4426300.50;4992541;28;20098;-89
2021/01/24 07:34:43;;;;;;;1.10;1.10;;;;;;;7.04;100.00;4424023.50;4992145;28;20026;-90
2021/01/24 07:37:09;;;;;;;0.85;0.85;;;;;;;7.04;100.00;4423064.00;4992628;28;20046;-92
2021/01/24 07:39:35;;;;;;;1.42;1.33;;;;;;;7.05;100.00;4422104.00;4992238;28;20027;-86
2021/01/24 07:42:02;;;;;;;1.25;0.50;;;;;;;7.06;100.00;4421746.50;4993442;28;20062;-85
2021/01/24 07:44:29;;;;;;;1.17;1.17;;;;;;;7.07;100.00;4420786.00;4992036;28;20110;-85
2021/01/24 07:46:55;;;;;;;0.77;0.77;;;;;;;7.08;100.00;4419947.50;4992454;28;20030;-90
2021/01/24 07:49:21;;;;;;;2.50;2.38;;;;;;;7.09;100.00;4419468.00;4992108;28;20038;-85
2021/01/24 07:51:47;;;;;;;1.50;1.25;;;;;;;7.10;100.00;4418509.50;4992056;28;20057;-88
2021/01/24 07:54:14;;;;;;;1.25;1.10;;;;;;;7.10;100.00;4418268.50;4991874;28;20034;-86
2021/01/24 07:56:40;;;;;;;0.20;0.20;;;;;;;7.11;100.00;4417430.50;4991650;28;20169;-86
2021/01/24 07:59:06;;;;;;;1.55;0.90;;;;;;;7.11;100.00;4417790.00;4992134;28;20125;-87
2021/01/24 08:01:33;;;;;;;1.00;1.00;;;;;;;7.11;100.00;4418271.00;4990967;28;20022;-86
2021/01/24 08:04:04;;;;;;;0.60;0.60;;;;;;;7.11;100.00;4417910.50;4972788;28;20035;-84
2021/01/24 08:06:32;;;;;;;0.70;0.70;;;;;;;7.13;100.00;4416111.50;4973108;28;20027;-82
2021/01/24 08:08:57;;;;;;;5.53;1.95;;;;;;;7.13;100.00;4415632.50;4972346;28;20038;-84
2021/01/24 08:11:22;;;;;;;1.05;1.05;;;;;;;7.15;100.00;4414434.00;4971027;28;20030;-83
2021/01/24 08:13:48;;;;;;;0.55;0.55;;;;;;;7.15;100.00;4414194.50;4970980;28;20035;-79
2021/01/24 08:16:17;;;;;;;1.65;0.77;;;;;;;7.16;100.00;4414076.50;4970761;28;20410;-81
2021/01/24 08:18:45;;;;;;;3.33;1.23;;;;;;;7.17;100.00;4413359.00;4974043;28;20033;-79
2021/01/24 08:21:12;;;;;;;0.70;0.70;;;;;;;7.17;100.00;4412879.00;4975165;28;20031;-79
2021/01/24 08:23:39;;;;;;;0.73;0.73;;;;;;;7.17;100.00;4412518.00;4976383;28;20035;-79
2021/01/24 08:26:05;;;;;;;7.25;1.00;;;;;;;7.18;100.00;4412039.50;4976307;28;20023;-79
2021/01/24 08:28:31;;;;;;;0.60;0.60;;;;;;;7.18;100.00;4411919.00;4976071;28;20035;-80
2021/01/24 08:31:01;;;;;;;2.38;1.95;;;;;;;7.20;100.00;4410841.00;4976292;28;20479;-78
2021/01/24 08:33:27;;;;;;;1.35;1.25;;;;;;;7.20;100.00;4409881.00;4976640;28;20022;-78
2021/01/24 08:35:53;;;;;;;1.70;1.60;;;;;;;7.20;100.00;4410483.00;4976055;28;20039;-80
2021/01/24 08:38:19;;;;;;;0.55;0.55;;;;;;;7.22;100.00;4409163.50;4975982;28;20030;-78
2021/01/24 08:40:48;;;;;;;0.43;0.43;;;;;;;7.23;100.00;4407965.00;4976073;28;20034;-78
2021/01/24 08:43:16;;;;;;;0.75;0.75;;;;;;;7.22;0.00;4408925.50;4976359;28;20062;-78
2021/01/24 08:45:41;;;;;;;1.17;1.08;;;;;;;7.24;0.00;4408087.50;4975942;28;20023;-79
2021/01/24 08:48:13;;;;;;;0.52;0.52;;;;;;;7.24;0.00;4407488.50;4976064;28;20037;-78
2021/01/24 08:50:39;;;;;;;0.60;0.60;;;;;;;7.26;0.00;4406049.00;4976003;28;20041;-78
2021/01/24 08:53:06;;;;;;;1.13;1.13;;;;;;;7.26;0.00;4406050.50;4976060;28;20022;-79
2021/01/24 08:55:49;;;;;;;1.02;1.02;;;;;;;7.28;0.00;4404250.50;4975850;28;20023;-79
2021/01/24 08:58:25;;;;;;;1.33;1.15;;;;;;;7.29;0.00;4402571.50;4975800;28;20062;-78
2021/01/24 09:01:09;;;;;;;1.45;0.95;;;;;;;7.30;0.00;4401492.50;4975781;28;20038;-78
2021/01/24 09:03:35;;;;;;;0.45;0.45;;;;;;;7.31;0.00;4401375.50;4975834;28;20033;-79
2021/01/24 09:06:17;;;;;;;0.68;0.68;;;;;;;7.33;0.00;4400298.50;4975572;28;20406;-78
2021/01/24 09:08:52;;;;;;;1.55;1.38;;;;;;;7.33;0.00;4399698.00;4975453;28;20034;-78
2021/01/24 09:11:18;;;;;;;0.50;0.50;;;;;;;7.35;0.00;4398138.50;4975461;28;20031;-77
2021/01/24 09:13:44;;;;;;;0.85;0.82;;;;;;;7.36;0.00;4397300.00;4975502;28;20034;-78
2021/01/24 09:16:10;;;;;;;0.50;0.50;;;;;;;7.36;0.00;4396220.00;4975534;28;20035;-78
2021/01/24 09:18:36;;;;;;;3.22;2.65;;;;;;;7.36;0.00;4396220.00;4975392;28;20035;-78
2021/01/24 09:21:03;;;;;;;0.65;0.65;;;;;;;7.37;0.00;4396461.00;4975219;28;20074;-78
2021/01/24 09:23:28;;;;;;;0.43;0.43;;;;;;;7.37;0.00;4395740.50;4975801;28;20034;-78
2021/01/24 09:25:54;;;;;;;0.28;0.28;;;;;;;7.37;0.00;4395741.00;4975198;28;20399;-78
2021/01/24 09:28:19;;;;;;;0.30;0.30;;;;;;;7.39;0.00;4394062.50;4975244;28;20118;-78
2021/01/24 09:30:45;;;;;;;2.55;1.38;;;;;;;7.39;0.00;4393462.50;4975361;28;20487;-78
2021/01/24 09:33:10;;;;;;;0.75;0.60;;;;;;;7.40;0.00;4393223.50;4975198;28;20023;-78
2021/01/24 09:35:36;;;;;;;0.38;0.38;;;;;;;7.39;0.00;4393221.50;4975010;28;20101;-77
2021/01/24 09:38:01;;;;;;;0.20;0.20;;;;;;;7.39;0.00;4393222.50;4974988;28;20037;-78
2021/01/24 09:40:27;;;;;;;0.65;0.55;;;;;;;7.40;0.00;4392503.50;4974855;28;20454;-78
2021/01/24 09:42:52;;;;;;;5.40;2.03;;;;;;;7.39;0.00;4392862.00;4974651;28;20055;-80
2021/01/24 09:45:18;;;;;;;0.30;0.30;;;;;;;7.40;0.00;4392023.50;4974914;28;20122;-83
2021/01/24 09:47:43;;;;;;;0.50;0.50;;;;;;;7.40;0.00;4391903.50;4975221;28;20066;-83
2021/01/24 09:50:10;;;;;;;0.70;0.70;;;;;;;7.40;0.00;4391422.00;4975146;28;20406;-85
2021/01/24 09:52:36;;;;;;;0.50;0.50;;;;;;;7.41;0.00;4390704.00;4974905;28;20035;-80
2021/01/24 09:55:02;;;;;;;1.48;1.38;;;;;;;7.41;0.00;4390703.50;4974819;28;20560;-81
2021/01/24 09:57:27;;;;;;;0.52;0.52;;;;;;;7.42;0.00;4390225.00;4975005;28;20479;-81
2021/01/24 09:59:53;;;;;;;0.25;0.25;;;;;;;7.42;0.00;4389624.50;4974848;28;20027;-82
2021/01/24 10:02:18;;;;;;;0.55;0.55;;;;;;;7.43;0.00;4389025.00;4974734;28;20034;-82
2021/01/24 10:04:43;;;;;;;0.40;0.40;;;;;;;7.42;0.00;4389744.00;4974997;28;20073;-81
2021/01/24 10:07:09;;;;;;;0.50;0.50;;;;;;;7.40;0.00;4390942.00;4974958;28;20027;-81
2021/01/24 10:09:34;;;;;;;0.30;0.30;;;;;;;7.42;0.00;4389983.50;4974676;28;20423;-80
2021/01/24 10:12:00;;;;;;;0.50;0.50;;;;;;;7.43;0.00;4388784.00;4974917;28;20384;-81
2021/01/24 10:14:26;;;;;;;0.25;0.25;;;;;;;7.42;0.00;4388783.50;4975065;28;20026;-81
2021/01/24 10:16:51;;;;;;;0.73;0.73;;;;;;;7.42;0.00;4388543.00;4974536;28;20561;-82
2021/01/24 10:19:17;;;;;;;0.75;0.75;;;;;;;7.43;0.00;4388303.00;4974476;28;20117;-82
2021/01/24 10:21:42;;;;;;;0.20;0.20;;;;;;;7.43;0.00;4387704.50;4974407;28;20500;-82
2021/01/24 10:24:08;;;;;;;0.20;0.20;;;;;;;7.43;0.00;4387463.50;4974421;28;20113;-83
2021/01/24 10:26:33;;;;;;;0.30;0.30;;;;;;;7.43;0.00;4387823.50;4975317;28;20089;-82
2021/01/24 10:28:59;;;;;;;9.02;4.40;;;;;;;7.44;0.00;4386746.00;4974814;28;20030;-81
2021/01/24 10:31:24;;;;;;;0.60;0.60;;;;;;;7.44;0.00;4386386.00;4974127;28;20162;-84
2021/01/24 10:33:50;;;;;;;0.88;0.85;;;;;;;7.44;0.00;4385782.00;4974228;28;20030;-83
2021/01/24 10:36:15;;;;;;;0.30;0.30;;;;;;;7.44;0.00;4385902.50;4974193;28;20035;-81
2021/01/24 10:38:41;;;;;;;0.40;0.40;;;;;;;7.43;0.00;4386621.50;4974168;28;20026;-81
2021/01/24 10:41:06;;;;;;;1.88;1.55;;;;;;;7.44;0.00;4386503.50;4973411;28;20055;-82
2021/01/24 10:43:32;;;;;;;0.30;0.30;;;;;;;7.44;0.00;4385783.50;4974419;28;20471;-81
2021/01/24 10:45:57;;;;;;;0.22;0.22;;;;;;;7.46;0.00;4384226.50;4973940;28;20031;-82
2021/01/24 10:48:22;;;;;;;0.20;0.20;;;;;;;7.47;0.00;4383027.50;4974216;28;20031;-86
2021/01/24 10:50:48;;;;;;;0.17;0.17;;;;;;;7.47;0.00;4382787.00;4974506;28;20479;-87
2021/01/24 10:53:13;;;;;;;4.72;3.63;;;;;;;7.47;0.00;4382786.00;4974003;28;20034;-87
2021/01/24 10:55:39;;;;;;;0.73;0.73;;;;;;;7.46;0.00;4383025.00;4973937;28;20038;-87
2021/01/24 10:58:04;;;;;;;4.13;3.80;;;;;;;7.47;0.00;4381946.50;4973842;28;20019;-86
2021/01/24 11:00:30;;;;;;;0.52;0.52;;;;;;;7.46;0.00;4382545.50;4973959;28;20037;-88
2021/01/24 11:02:57;;;;;;;0.63;0.63;;;;;;;7.47;0.00;4382425.50;4974094;28;20434;-88
2021/01/24 11:05:22;;;;;;;0.32;0.32;;;;;;;7.47;0.00;4381345.50;4974422;28;20030;-88
2021/01/24 11:07:48;;;;;;;0.28;0.28;;;;;;;7.47;0.00;4381706.50;4976383;28;20498;-88
2021/01/24 11:10:16;;;;;;;0.90;0.90;;;;;;;7.45;0.00;4383622.50;4974344;28;20034;-88
2021/01/24 11:12:42;;;;;;;2.30;2.03;;;;;;;7.45;0.00;4383982.50;4973966;28;20117;-87
2021/01/24 11:15:09;;;;;;;1.35;1.25;;;;;;;7.44;0.00;4383741.00;4973691;28;20238;-88
2021/01/24 11:17:34;;;;;;;0.68;0.68;;;;;;;7.45;0.00;4382422.50;4973792;28;20085;-87
2021/01/24 11:20:00;;;;;;;0.70;0.70;;;;;;;7.46;0.00;4382904.50;4974103;28;20457;-86
2021/01/24 11:22:25;;;;;;;0.90;0.57;;;;;;;7.46;0.00;4382784.50;4973537;28;20046;-85
2021/01/24 11:24:51;;;;;;;0.15;0.15;;;;;;;7.47;0.00;4381826.50;4973899;28;20030;-86
2021/01/24 11:27:17;;;;;;;0.90;0.90;;;;;;;7.48;0.00;4380267.50;4973626;28;20498;-85